createdAt,value
2022-12-31T11:44:01.708Z,98122.58
2022-12-31T11:46:59.448Z,98115.33
2022-12-31T11:49:52.909Z,98103.56
2022-12-31T11:52:41.035Z,98087.81
2022-12-31T12:28:46.782Z,98027.98
2022-12-31T12:31:26.896Z,98010.14
2022-12-31T12:34:02.414Z,98026.85
2022-12-31T12:36:35.396Z,98055.95
2022-12-31T12:39:08.946Z,98088.84
2022-12-31T12:41:41.408Z,98118.52
2022-12-31T12:44:18.860Z,98153.80
2022-12-31T12:46:53.764Z,98178.50
2022-12-31T12:49:28.804Z,98202.81
2022-12-31T12:52:30.170Z,98227.75
2022-12-31T12:55:18.275Z,98263.64
2022-12-31T13:03:02.874Z,98310.96
2022-12-31T13:05:48.595Z,98326.80
2022-12-31T13:08:33.676Z,98327.57
2022-12-31T13:11:28.780Z,98336.27
2022-12-31T13:14:11.077Z,98343.11
2022-12-31T13:16:48.613Z,98362.88
2022-12-31T13:19:28.854Z,98362.76
2022-12-31T13:22:12.134Z,98358.23
2022-12-31T13:24:54.185Z,98355.91
2022-12-31T13:27:35.654Z,98341.75
2022-12-31T13:30:26.760Z,98342.54
2022-12-31T13:33:08.692Z,98353.83
2022-12-31T13:35:47.326Z,98370.00
2022-12-31T13:38:26.940Z,98367.81
2022-12-31T13:41:02.474Z,98369.32
2022-12-31T13:43:47.311Z,98367.48
2022-12-31T13:46:37.492Z,98357.99
2022-12-31T13:49:19.912Z,98374.66
2022-12-31T13:51:56.304Z,98373.84
2022-12-31T13:54:39.774Z,98372.00
2022-12-31T13:57:22.758Z,98364.69
2022-12-31T14:00:01.596Z,98372.21
2022-12-31T14:02:49.216Z,98367.31
2022-12-31T14:05:27.989Z,98369.31
2022-12-31T14:08:04.509Z,98370.52
2022-12-31T14:10:58.991Z,98358.45
2022-12-31T14:14:03.975Z,98361.16
2022-12-31T14:16:43.473Z,98360.37
2022-12-31T14:19:31.104Z,98358.89
2022-12-31T14:22:13.511Z,98356.20
2022-12-31T14:24:49.960Z,98352.89
2022-12-31T14:27:29.608Z,98366.68
2022-12-31T14:30:04.940Z,98367.45
2022-12-31T14:33:07.999Z,98354.17
2022-12-31T14:35:59.065Z,98347.71
2022-12-31T14:38:45.279Z,98355.84
2022-12-31T14:41:34.827Z,98356.86
2022-12-31T14:44:19.909Z,98342.31
2022-12-31T14:47:07.137Z,98350.92
2022-12-31T14:49:49.482Z,98372.33
2022-12-31T14:52:27.977Z,98372.56
2022-12-31T14:55:12.638Z,98360.62
2022-12-31T15:00:40.462Z,98365.16
2022-12-31T15:03:27.576Z,98367.21
2022-12-31T15:06:07.187Z,98368.02
2022-12-31T15:08:53.283Z,98372.87
2022-12-31T15:11:46.342Z,98374.89
2022-12-31T15:14:41.260Z,98377.46
2022-12-31T15:17:25.053Z,98376.76
2022-12-31T15:20:39.415Z,98375.25
2022-12-31T15:23:21.317Z,98371.52
2022-12-31T15:25:59.635Z,98370.10
2022-12-31T15:28:38.504Z,98370.24
2022-12-31T15:31:20.676Z,98371.17
2022-12-31T15:34:02.564Z,98373.50
2022-12-31T15:36:38.655Z,98381.27
2022-12-31T15:39:38.045Z,98388.69
2022-12-31T15:42:38.259Z,98385.87
2022-12-31T15:45:20.151Z,98396.36
2022-12-31T15:47:58.421Z,98394.88
2022-12-31T15:50:32.075Z,98410.42
2022-12-31T15:53:06.589Z,98411.77
2022-12-31T15:55:45.447Z,98404.44
2022-12-31T15:58:20.969Z,98409.45
2022-12-31T16:01:03.761Z,98404.27
2022-12-31T16:03:36.818Z,98402.36
2022-12-31T16:06:14.343Z,98396.75
2022-12-31T16:08:50.358Z,98401.80
2022-12-31T16:11:24.631Z,98401.70
2022-12-31T16:13:58.959Z,98402.11
2022-12-31T16:16:33.558Z,98407.42
2022-12-31T16:19:24.586Z,98408.41
2022-12-31T16:22:09.759Z,98403.60
2022-12-31T16:25:19.441Z,98409.10
2022-12-31T16:27:37.410Z,98410.77
2022-12-31T16:30:22.363Z,98409.32
2022-12-31T16:32:57.502Z,98410.02
2022-12-31T16:35:31.839Z,98417.50
2022-12-31T16:38:15.660Z,98425.03
2022-12-31T16:41:10.685Z,98420.77
2022-12-31T16:43:44.865Z,98419.34
2022-12-31T16:46:26.354Z,98419.89
2022-12-31T16:49:15.852Z,98417.53
2022-12-31T16:51:49.735Z,98418.90
2022-12-31T16:54:27.636Z,98427.89
2022-12-31T16:57:01.242Z,98423.27
2022-12-31T16:59:41.184Z,98418.70
2022-12-31T17:02:17.605Z,98418.85
2022-12-31T17:04:56.052Z,98422.67
2022-12-31T17:07:38.619Z,98423.45
2022-12-31T17:10:22.328Z,98427.91
2022-12-31T17:15:55.493Z,98424.23
2022-12-31T17:18:31.833Z,98425.00
2022-12-31T17:21:10.969Z,98437.12
2022-12-31T17:23:46.970Z,98434.02
2022-12-31T17:26:26.880Z,98432.34
2022-12-31T17:29:01.669Z,98435.21
2022-12-31T17:31:38.901Z,98435.73
2022-12-31T17:34:31.084Z,98435.98
2022-12-31T17:37:18.389Z,98434.56
2022-12-31T17:39:54.668Z,98429.36
2022-12-31T17:42:37.007Z,98432.88
2022-12-31T17:45:21.528Z,98429.05
2022-12-31T17:47:57.039Z,98440.38
2022-12-31T17:50:33.720Z,98432.73
2022-12-31T17:53:16.755Z,98442.04
2022-12-31T17:55:56.113Z,98448.98
2022-12-31T17:58:36.313Z,98454.27
2022-12-31T18:01:21.133Z,98454.73
2022-12-31T18:03:53.903Z,98454.82
2022-12-31T18:06:26.829Z,98453.54
2022-12-31T18:09:06.511Z,98454.96
2022-12-31T18:11:46.607Z,98451.02
2022-12-31T18:14:19.641Z,98445.11
2022-12-31T18:16:54.635Z,98450.79
2022-12-31T18:22:24.476Z,98454.06
2022-12-31T18:24:57.072Z,98455.13
2022-12-31T18:27:30.798Z,98461.87
2022-12-31T18:30:06.453Z,98466.79
2022-12-31T18:32:42.879Z,98471.01
2022-12-31T18:35:40.733Z,98465.50
2022-12-31T18:38:14.738Z,98463.27
2022-12-31T18:40:55.940Z,98460.95
2022-12-31T18:43:31.043Z,98461.42
2022-12-31T18:46:04.025Z,98464.11
2022-12-31T18:48:36.589Z,98463.19
2022-12-31T18:51:11.931Z,98461.34
2022-12-31T18:53:47.622Z,98464.75
2022-12-31T18:56:25.360Z,98463.52
2022-12-31T18:58:58.438Z,98466.46
2022-12-31T19:01:33.372Z,98461.32
2022-12-31T19:04:14.149Z,98455.58
2022-12-31T19:06:47.577Z,98463.80
2022-12-31T19:09:44.070Z,98460.71
2022-12-31T19:12:17.061Z,98467.27
2022-12-31T19:14:49.390Z,98475.45
2022-12-31T19:17:21.932Z,98475.76
2022-12-31T19:19:54.278Z,98470.98
2022-12-31T19:22:26.686Z,98469.51
2022-12-31T19:24:59.098Z,98469.81
2022-12-31T19:27:31.701Z,98468.75
2022-12-31T19:30:04.208Z,98475.45
2022-12-31T19:32:36.966Z,98477.10
2022-12-31T19:35:10.240Z,98475.65
2022-12-31T19:37:43.539Z,98473.70
2022-12-31T19:40:18.881Z,98482.52
2022-12-31T19:42:53.433Z,98478.35
2022-12-31T19:45:27.650Z,98477.32
2022-12-31T19:48:00.214Z,98476.17
2022-12-31T19:50:33.072Z,98479.19
2022-12-31T19:53:05.690Z,98483.76
2022-12-31T19:55:38.126Z,98485.62
2022-12-31T19:58:18.089Z,98488.52
2022-12-31T20:00:56.918Z,98487.31
2022-12-31T20:03:34.140Z,98491.98
2022-12-31T20:06:10.351Z,98492.05
2022-12-31T20:08:44.171Z,98496.65
2022-12-31T20:11:19.044Z,98490.05
2022-12-31T20:13:53.873Z,98484.73
2022-12-31T20:16:30.888Z,98479.09
2022-12-31T20:19:03.323Z,98470.73
2022-12-31T20:21:35.788Z,98470.38
2022-12-31T20:24:09.042Z,98461.45
2022-12-31T20:26:41.870Z,98463.21
2022-12-31T20:29:14.366Z,98464.91
2022-12-31T20:31:47.488Z,98463.52
2022-12-31T20:34:20.049Z,98466.39
2022-12-31T20:36:52.494Z,98466.67
2022-12-31T20:39:30.243Z,98465.90
2022-12-31T20:42:04.187Z,98467.02
2022-12-31T20:44:37.084Z,98467.18
2022-12-31T20:47:09.992Z,98467.01
2022-12-31T20:50:10.390Z,98468.40
2022-12-31T20:52:36.977Z,98463.55
2022-12-31T20:55:10.851Z,98460.98
2022-12-31T20:57:43.198Z,98456.18
2022-12-31T21:00:19.351Z,98457.39
2022-12-31T21:03:04.105Z,98457.08
2022-12-31T21:05:49.917Z,98455.07
2022-12-31T21:08:22.755Z,98461.20
2022-12-31T21:10:57.609Z,98462.48
2022-12-31T21:13:31.204Z,98461.43
2022-12-31T21:16:03.497Z,98460.50
2022-12-31T21:18:35.950Z,98462.52
2022-12-31T21:21:08.679Z,98462.27
2022-12-31T21:23:41.545Z,98471.44
2022-12-31T21:26:14.023Z,98483.95
2022-12-31T21:28:46.513Z,98474.91
2022-12-31T21:31:18.819Z,98465.14
2022-12-31T21:33:52.432Z,98473.34
2022-12-31T21:36:25.013Z,98478.25
2022-12-31T21:38:57.710Z,98483.15
2022-12-31T21:41:47.582Z,98484.27
2022-12-31T21:44:21.041Z,98484.85
2022-12-31T21:47:34.864Z,98481.91
2022-12-31T21:50:09.188Z,98489.36
2022-12-31T21:52:41.579Z,98490.19
2022-12-31T21:55:32.645Z,98496.10
2022-12-31T22:01:15.542Z,98496.79
2022-12-31T22:03:46.351Z,98508.63
2022-12-31T22:06:22.258Z,98510.39
2022-12-31T22:08:57.853Z,98505.67
2022-12-31T22:11:32.390Z,98504.59
2022-12-31T22:14:04.750Z,98509.91
2022-12-31T22:16:37.184Z,98508.60
2022-12-31T22:19:11.952Z,98504.36
2022-12-31T22:21:44.336Z,98499.90
2022-12-31T22:24:16.785Z,98501.24
2022-12-31T22:26:53.934Z,98506.99
2022-12-31T22:29:26.701Z,98510.71
2022-12-31T22:32:01.269Z,98512.73
2022-12-31T22:34:33.993Z,98509.53
2022-12-31T22:37:27.458Z,98509.89
2022-12-31T22:39:58.845Z,98502.27
2022-12-31T22:42:31.356Z,98501.98
2022-12-31T22:45:03.931Z,98500.28
2022-12-31T22:47:36.480Z,98497.02
2022-12-31T22:50:10.190Z,98500.99
2022-12-31T22:52:42.965Z,98500.98
2022-12-31T22:55:15.437Z,98501.16
2022-12-31T22:57:47.792Z,98497.98
2022-12-31T23:00:20.258Z,98500.05
2022-12-31T23:02:53.050Z,98505.77
2022-12-31T23:05:25.553Z,98502.71
2022-12-31T23:08:04.395Z,98502.33
2022-12-31T23:10:54.191Z,98506.02
2022-12-31T23:13:49.805Z,98506.04
2022-12-31T23:16:41.036Z,98503.38
2022-12-31T23:19:31.257Z,98498.17
2022-12-31T23:22:21.249Z,98490.40
2022-12-31T23:24:54.027Z,98488.86
2022-12-31T23:27:26.614Z,98485.67
2022-12-31T23:29:59.470Z,98496.84
2022-12-31T23:32:31.920Z,98502.65
2022-12-31T23:35:09.536Z,98501.60
2022-12-31T23:37:42.523Z,98499.23
2022-12-31T23:40:21.248Z,98497.52
2022-12-31T23:42:54.446Z,98497.64
2022-12-31T23:45:32.693Z,98508.39
2022-12-31T23:48:06.582Z,98507.27
2022-12-31T23:50:49.160Z,98508.76
2022-12-31T23:53:28.189Z,98501.70
2022-12-31T23:56:13.038Z,98494.50
2022-12-31T23:58:50.077Z,98485.23
